Time;durP1;ratioP1;P1;durP2;ratioP2;P2;SDS_P1;SDS_P2;PMS_P1;PMS_P2;Temp;Humidity;BMP_temperature;BMP_pressure;BME280_temperature;BME280_humidity;BME280_pressure;Samples;Min_cycle;Max_cycle;Signal;HPM_P1;HPM_P2
2022/06/11 00:01:25;;;;;;;;;;;;;;;27.19;86.03;99421.41;5036001;28;19920;-50
2022/06/11 00:03:51;;;;;;;;;;;;;;;27.19;87.19;99421.41;5029480;28;19937;-51
2022/06/11 00:06:16;;;;;;;;;;;;;;;27.11;87.15;99425.59;5041734;28;20346;-55
2022/06/11 00:08:43;;;;;;;;;;;;;;;27.24;87.79;99421.81;5046788;28;19927;-54
2022/06/11 00:11:08;;;;;;;;;;;;;;;27.24;86.82;99424.47;5042672;28;20008;-53
2022/06/11 00:13:34;;;;;;;;;;;;;;;27.21;85.90;99422.09;5044962;28;19920;-53
2022/06/11 00:16:01;;;;;;;;;;;;;;;27.11;85.39;99428.22;5028301;28;19916;-54
2022/06/11 00:18:27;;;;;;;;;;;;;;;27.07;86.48;99418.09;5047113;28;19927;-53
2022/06/11 00:20:52;;;;;;;;;;;;;;;27.34;85.95;99419.97;5046330;28;19955;-53
2022/06/11 00:23:17;;;;;;;;;;;;;;;26.91;87.12;99423.97;5043796;28;19928;-54
2022/06/11 00:25:43;;;;;;;;;;;;;;;26.97;87.65;99422.59;5044430;28;19932;-53
2022/06/11 00:28:09;;;;;;;;;;;;;;;27.01;86.93;99418.69;5048752;28;19923;-53
2022/06/11 00:30:35;;;;;;;;;;;;;;;26.96;87.52;99419.13;5045525;28;20454;-53
2022/06/11 00:33:00;;;;;;;;;;;;;;;27.07;86.97;99404.88;5027531;28;19966;-51
2022/06/11 00:35:26;;;;;;;;;;;;;;;26.87;89.62;99410.25;5046004;28;20006;-54
2022/06/11 00:37:51;;;;;;;;;;;;;;;26.72;88.01;99408.19;5046312;28;19923;-54
2022/06/11 00:40:18;;;;;;;;;;;;;;;26.65;89.43;99414.03;5047858;28;19931;-53
2022/06/11 00:42:43;;;;;;;;;;;;;;;26.83;87.55;99410.66;5025764;28;19920;-51
2022/06/11 00:45:13;;;;;;;;;;;;;;;26.92;87.75;99407.16;5047062;28;19960;-54
2022/06/11 00:47:38;;;;;;;;;;;;;;;26.40;90.26;99418.06;5044418;28;19928;-55
2022/06/11 00:50:06;;;;;;;;;;;;;;;26.48;90.08;99414.75;5045421;28;19924;-55
2022/06/11 00:52:33;;;;;;;;;;;;;;;26.75;87.86;99405.25;5028758;28;19932;-53
2022/06/11 00:55:00;;;;;;;;;;;;;;;26.63;88.68;99408.06;5025826;28;19932;-52
2022/06/11 00:57:26;;;;;;;;;;;;;;;26.67;86.89;99404.16;5026006;28;19924;-52
2022/06/11 00:59:52;;;;;;;;;;;;;;;26.57;87.53;99408.63;5027050;28;19925;-56
2022/06/11 01:02:18;;;;;;;;;;;;;;;26.70;88.08;99397.75;5027014;28;19929;-55
2022/06/11 01:04:44;;;;;;;;;;;;;;;26.89;88.09;99396.84;5043196;28;20021;-55
2022/06/11 01:07:18;;;;;;;;;;;;;;;26.95;86.58;99398.94;5047131;28;19924;-55
2022/06/11 01:10:02;;;;;;;;;;;;;;;26.85;89.08;99398.97;5045723;28;19924;-56
2022/06/11 01:12:37;;;;;;;;;;;;;;;26.88;88.62;99396.03;5046132;28;19935;-54
2022/06/11 01:15:05;;;;;;;;;;;;;;;26.98;88.23;99390.75;5044782;28;19927;-56
2022/06/11 01:17:45;;;;;;;;;;;;;;;27.03;87.98;99393.78;5044644;28;19962;-56
2022/06/11 01:20:16;;;;;;;;;;;;;;;26.84;87.26;99393.81;5024457;28;19921;-54
2022/06/11 01:22:56;;;;;;;;;;;;;;;26.94;88.48;99401.72;5043770;28;20484;-54
2022/06/11 01:25:40;;;;;;;;;;;;;;;27.01;87.86;99402.81;5045229;28;20016;-55
2022/06/11 01:28:24;;;;;;;;;;;;;;;26.87;87.46;99409.41;5041965;28;19916;-52
2022/06/11 01:30:50;;;;;;;;;;;;;;;26.81;88.71;99410.78;5041923;28;20389;-53
2022/06/11 01:33:24;;;;;;;;;;;;;;;26.59;89.93;99406.66;5045927;28;19956;-53
2022/06/11 01:35:57;;;;;;;;;;;;;;;26.78;89.93;99405.81;5045777;28;19927;-54
2022/06/11 01:38:28;;;;;;;;;;;;;;;26.81;89.21;99412.63;5028168;28;19924;-55
2022/06/11 01:40:56;;;;;;;;;;;;;;;26.71;89.63;99410.00;5024035;28;20276;-54
2022/06/11 01:43:24;;;;;;;;;;;;;;;26.81;89.25;99409.97;5026400;28;19964;-55
2022/06/11 01:45:50;;;;;;;;;;;;;;;26.72;88.91;99408.19;5044445;28;19925;-54
2022/06/11 01:48:17;;;;;;;;;;;;;;;26.65;89.58;99405.28;5026857;28;19920;-54
2022/06/11 01:50:47;;;;;;;;;;;;;;;26.66;89.63;99407.78;5023334;28;19924;-55
2022/06/11 01:53:14;;;;;;;;;;;;;;;26.76;89.53;99406.94;5043096;28;20433;-54
2022/06/11 01:55:51;;;;;;;;;;;;;;;26.54;90.50;99408.88;5045537;28;19916;-55
2022/06/11 01:58:19;;;;;;;;;;;;;;;26.65;90.34;99406.09;5044076;28;19928;-52
2022/06/11 02:00:50;;;;;;;;;;;;;;;26.35;92.69;99414.19;5043220;28;19927;-56
2022/06/11 02:03:22;;;;;;;;;;;;;;;26.64;91.01;99403.59;5026099;28;19944;-54
2022/06/11 02:05:58;;;;;;;;;;;;;;;26.64;90.27;99407.09;5007786;28;20271;-54
2022/06/11 02:08:39;;;;;;;;;;;;;;;26.55;90.74;99407.94;5024374;28;19925;-55
2022/06/11 02:11:18;;;;;;;;;;;;;;;26.59;92.03;99411.13;5041827;28;20010;-54
2022/06/11 02:13:46;;;;;;;;;;;;;;;26.64;91.23;99414.16;5025522;28;19925;-54
2022/06/11 02:16:13;;;;;;;;;;;;;;;26.76;91.40;99417.50;5023397;28;20854;-54
2022/06/11 02:18:39;;;;;;;;;;;;;;;26.44;91.78;99408.06;5029021;28;19942;-55
2022/06/11 02:21:06;;;;;;;;;;;;;;;26.71;91.35;99415.28;5021724;28;20949;-53
2022/06/11 02:23:33;;;;;;;;;;;;;;;26.75;91.45;99413.19;5042107;28;20078;-54
2022/06/11 02:26:00;;;;;;;;;;;;;;;26.68;92.21;99420.84;5025229;28;19928;-52
2022/06/11 02:28:26;;;;;;;;;;;;;;;26.44;92.74;99423.91;5026139;28;19920;-53
2022/06/11 02:30:52;;;;;;;;;;;;;;;26.40;94.09;99419.88;5039975;28;19921;-55
2022/06/11 02:33:19;;;;;;;;;;;;;;;26.42;93.74;99424.03;5025217;28;19927;-53
2022/06/11 02:35:44;;;;;;;;;;;;;;;26.51;92.63;99419.72;5042097;28;19916;-53
2022/06/11 02:38:11;;;;;;;;;;;;;;;26.49;91.12;99422.50;5044118;28;19920;-54
2022/06/11 02:40:38;;;;;;;;;;;;;;;26.69;91.92;99420.72;5042895;28;20612;-54
2022/06/11 02:43:03;;;;;;;;;;;;;;;26.65;91.57;99421.97;5008127;28;19932;-54
2022/06/11 02:45:28;;;;;;;;;;;;;;;26.58;91.35;99420.03;5041607;28;19960;-55
2022/06/11 02:47:54;;;;;;;;;;;;;;;26.53;92.37;99423.06;5043725;28;19920;-54
2022/06/11 02:50:29;;;;;;;;;;;;;;;26.45;93.85;99422.94;5040216;28;20421;-52
2022/06/11 02:52:55;;;;;;;;;;;;;;;26.41;94.00;99427.69;5043572;28;19925;-53
2022/06/11 02:55:20;;;;;;;;;;;;;;;26.41;93.65;99424.19;5024741;28;20294;-56
2022/06/11 02:57:46;;;;;;;;;;;;;;;26.20;95.70;99427.78;5041878;28;19927;-55
2022/06/11 03:00:15;;;;;;;;;;;;;;;26.24;95.92;99428.34;5043735;28;19943;-52
2022/06/11 03:02:40;;;;;;;;;;;;;;;26.30;95.75;99435.75;5042464;28;19965;-54
2022/06/11 03:05:05;;;;;;;;;;;;;;;26.32;95.73;99435.56;5042964;28;20331;-54
2022/06/11 03:07:30;;;;;;;;;;;;;;;26.33;95.32;99439.91;5040347;28;19917;-54
2022/06/11 03:09:56;;;;;;;;;;;;;;;26.33;96.04;99437.25;5041515;28;19921;-54
2022/06/11 03:12:21;;;;;;;;;;;;;;;26.29;95.41;99436.69;5043684;28;19921;-55
2022/06/11 03:14:47;;;;;;;;;;;;;;;26.35;95.75;99435.31;5041617;28;19960;-54
2022/06/11 03:17:13;;;;;;;;;;;;;;;26.25;95.80;99441.44;5026806;28;19920;-54
2022/06/11 03:19:39;;;;;;;;;;;;;;;26.40;95.63;99444.47;5042405;28;19925;-54
2022/06/11 03:22:05;;;;;;;;;;;;;;;26.49;94.84;99440.16;5048490;28;20015;-55
2022/06/11 03:24:30;;;;;;;;;;;;;;;26.43;94.76;99443.34;5047275;28;20271;-55
2022/06/11 03:26:55;;;;;;;;;;;;;;;26.36;95.48;99452.81;5046768;28;19924;-53
2022/06/11 03:29:21;;;;;;;;;;;;;;;26.46;93.97;99448.38;5046464;28;19916;-53
2022/06/11 03:31:47;;;;;;;;;;;;;;;26.47;93.95;99450.03;5029446;28;20728;-54
2022/06/11 03:34:12;;;;;;;;;;;;;;;26.42;95.37;99447.81;5045923;28;19971;-54
2022/06/11 03:36:38;;;;;;;;;;;;;;;26.45;94.58;99457.25;5044661;28;20513;-55
2022/06/11 03:39:03;;;;;;;;;;;;;;;26.14;97.18;99456.53;5042585;28;19932;-55
2022/06/11 03:41:29;;;;;;;;;;;;;;;26.28;96.08;99456.16;5044940;28;19923;-55
2022/06/11 03:43:54;;;;;;;;;;;;;;;26.35;95.68;99454.63;5050350;28;19967;-55
2022/06/11 03:46:19;;;;;;;;;;;;;;;26.09;95.67;99462.25;5027977;28;19921;-53
2022/06/11 03:48:44;;;;;;;;;;;;;;;26.40;95.15;99459.50;5045846;28;20003;-54
2022/06/11 03:51:10;;;;;;;;;;;;;;;26.47;94.64;99456.16;5028518;28;19975;-54
2022/06/11 03:53:36;;;;;;;;;;;;;;;26.26;95.92;99464.22;5045623;28;19920;-50
2022/06/11 03:56:01;;;;;;;;;;;;;;;26.06;96.53;99460.72;5047184;28;19920;-54
2022/06/11 03:58:27;;;;;;;;;;;;;;;25.66;98.26;99466.03;5045962;28;19927;-54
2022/06/11 04:03:36;;;;;;;;;;;;;;;25.70;100.00;99471.84;5045872;28;19932;-55
2022/06/11 04:06:02;;;;;;;;;;;;;;;25.76;98.53;99472.16;5044301;28;19920;-55
2022/06/11 04:08:27;;;;;;;;;;;;;;;25.45;100.00;99482.75;5046526;28;19920;-55
2022/06/11 04:10:54;;;;;;;;;;;;;;;25.24;100.00;99487.22;5046605;28;19920;-55
2022/06/11 04:13:19;;;;;;;;;;;;;;;25.03;100.00;99490.69;5043818;28;19920;-55
2022/06/11 04:15:45;;;;;;;;;;;;;;;25.64;100.00;99495.16;5045409;28;19920;-53
2022/06/11 04:18:16;;;;;;;;;;;;;;;25.80;100.00;99493.84;5045871;28;19917;-55
2022/06/11 04:20:42;;;;;;;;;;;;;;;25.76;100.00;99501.19;5026354;28;19916;-54
2022/06/11 04:23:07;;;;;;;;;;;;;;;25.97;100.00;99492.38;5048238;28;19931;-55
2022/06/11 04:25:32;;;;;;;;;;;;;;;25.60;100.00;99499.03;5045960;28;19935;-55
2022/06/11 04:27:58;;;;;;;;;;;;;;;25.86;100.00;99506.47;5044955;28;19943;-56
2022/06/11 04:30:24;;;;;;;;;;;;;;;26.09;100.00;99504.47;5044462;28;19930;-55
2022/06/11 04:32:49;;;;;;;;;;;;;;;26.12;99.86;99506.88;5045361;28;19947;-54
2022/06/11 04:35:15;;;;;;;;;;;;;;;25.27;100.00;99513.31;5048889;28;20390;-54
2022/06/11 04:37:40;;;;;;;;;;;;;;;25.18;100.00;99508.78;5046356;28;20278;-55
2022/06/11 04:40:07;;;;;;;;;;;;;;;25.66;100.00;99505.59;5024449;28;19924;-53
2022/06/11 04:42:33;;;;;;;;;;;;;;;24.66;100.00;99513.16;5042574;28;20283;-55
2022/06/11 04:44:59;;;;;;;;;;;;;;;25.03;100.00;99510.94;5046960;28;19921;-54
2022/06/11 04:47:25;;;;;;;;;;;;;;;25.32;100.00;99508.50;5046203;28;19916;-52
2022/06/11 04:49:51;;;;;;;;;;;;;;;25.79;100.00;99507.97;5046006;28;19956;-54
2022/06/11 04:52:16;;;;;;;;;;;;;;;25.84;100.00;99517.19;5046711;28;19958;-54
2022/06/11 04:54:42;;;;;;;;;;;;;;;25.20;100.00;99512.16;5048282;28;20004;-53
2022/06/11 04:57:07;;;;;;;;;;;;;;;24.93;100.00;99510.88;5046816;28;20416;-53
2022/06/11 04:59:33;;;;;;;;;;;;;;;25.64;100.00;99515.44;5045840;28;20496;-54
2022/06/11 05:01:58;;;;;;;;;;;;;;;25.28;100.00;99525.53;5028421;28;19936;-54
2022/06/11 05:04:24;;;;;;;;;;;;;;;25.60;100.00;99514.03;5047455;28;19921;-54
2022/06/11 05:06:49;;;;;;;;;;;;;;;25.43;100.00;99516.31;5045361;28;19924;-54
2022/06/11 05:09:16;;;;;;;;;;;;;;;25.79;100.00;99522.00;5044949;28;19917;-54
2022/06/11 05:11:41;;;;;;;;;;;;;;;26.08;100.00;99518.66;5042823;28;19921;-53
2022/06/11 05:14:07;;;;;;;;;;;;;;;26.62;100.00;99517.34;5046608;28;20574;-54
2022/06/11 05:16:32;;;;;;;;;;;;;;;26.22;100.00;99517.44;5044888;28;19964;-53
2022/06/11 05:18:57;;;;;;;;;;;;;;;26.47;100.00;99521.34;5027557;28;19960;-39
2022/06/11 05:21:22;;;;;;;;;;;;;;;26.33;100.00;99521.75;5042457;28;19921;-39
2022/06/11 05:23:48;;;;;;;;;;;;;;;26.46;100.00;99517.06;5044864;28;20853;-39
2022/06/11 05:26:17;;;;;;;;;;;;;;;26.17;100.00;99517.84;5046567;28;19925;-39
2022/06/11 05:28:43;;;;;;;;;;;;;;;25.72;100.00;99523.50;5026212;28;19925;-39
2022/06/11 05:31:08;;;;;;;;;;;;;;;25.93;100.00;99526.09;5042523;28;20513;-39
2022/06/11 05:33:33;;;;;;;;;;;;;;;25.51;100.00;99525.38;5042967;28;19925;-39
2022/06/11 05:35:58;;;;;;;;;;;;;;;25.60;100.00;99524.59;5046414;28;20007;-39
2022/06/11 05:38:24;;;;;;;;;;;;;;;26.90;100.00;99520.94;5044317;28;19921;-39
2022/06/11 05:40:50;;;;;;;;;;;;;;;26.88;100.00;99527.34;5027707;28;19920;-39
2022/06/11 05:43:16;;;;;;;;;;;;;;;26.81;99.94;99521.78;5026595;28;20006;-39
2022/06/11 05:45:41;;;;;;;;;;;;;;;26.54;100.00;99521.63;5041066;28;19924;-39
2022/06/11 05:48:07;;;;;;;;;;;;;;;25.97;100.00;99529.31;5043577;28;20015;-39
2022/06/11 05:50:33;;;;;;;;;;;;;;;27.18;100.00;99517.56;5026267;28;20203;-39
2022/06/11 05:52:59;;;;;;;;;;;;;;;26.69;100.00;99515.00;5044850;28;19917;-39
2022/06/11 05:55:26;;;;;;;;;;;;;;;27.33;100.00;99516.16;5023918;28;19974;-39
2022/06/11 05:57:52;;;;;;;;;;;;;;;27.39;94.93;99506.81;5028927;28;19922;-39
2022/06/11 06:00:18;;;;;;;;;;;;;;;26.84;100.00;99518.03;5025204;28;19917;-39
2022/06/11 06:02:44;;;;;;;;;;;;;;;27.24;100.00;99514.38;5045435;28;20442;-40
2022/06/11 06:05:11;;;;;;;;;;;;;;;27.80;95.00;99502.84;5044463;28;19947;-39
2022/06/11 06:07:36;;;;;;;;;;;;;;;27.79;94.16;99506.50;5045622;28;19917;-39
2022/06/11 06:10:02;;;;;;;;;;;;;;;27.74;96.49;99517.53;5042087;28;19927;-39
2022/06/11 06:12:30;;;;;;;;;;;;;;;27.80;94.71;99507.31;5045358;28;19952;-40
2022/06/11 06:15:00;;;;;;;;;;;;;;;27.72;95.07;99516.00;5042501;28;19921;-39
2022/06/11 06:17:25;;;;;;;;;;;;;;;28.13;91.60;99508.56;5043690;28;19916;-39
2022/06/11 06:19:51;;;;;;;;;;;;;;;28.12;94.72;99506.88;5043170;28;19912;-40
2022/06/11 06:22:16;;;;;;;;;;;;;;;27.23;94.91;99521.50;5044539;28;20386;-40
2022/06/11 06:24:47;;;;;;;;;;;;;;;27.61;94.17;99513.56;5046976;28;19959;-39
2022/06/11 06:27:12;;;;;;;;;;;;;;;27.16;91.66;99520.34;5043571;28;20536;-39
2022/06/11 06:29:37;;;;;;;;;;;;;;;27.78;94.18;99515.44;5041597;28;19924;-39
2022/06/11 06:32:03;;;;;;;;;;;;;;;28.21;92.10;99515.75;5044209;28;19921;-40
2022/06/11 06:34:28;;;;;;;;;;;;;;;28.60;88.31;99510.19;5043697;28;19913;-39
2022/06/11 06:36:53;;;;;;;;;;;;;;;28.99;88.45;99510.69;5047288;28;19931;-39
2022/06/11 06:39:18;;;;;;;;;;;;;;;28.21;90.44;99519.22;5043541;28;19924;-39
2022/06/11 06:41:44;;;;;;;;;;;;;;;27.13;95.00;99531.22;5043861;28;19916;-39
2022/06/11 06:44:09;;;;;;;;;;;;;;;27.45;96.20;99525.59;5044900;28;19927;-39
2022/06/11 06:46:34;;;;;;;;;;;;;;;28.28;93.52;99522.13;5042890;28;19927;-39
2022/06/11 06:48:59;;;;;;;;;;;;;;;28.27;89.26;99521.28;5025214;28;20402;-39
2022/06/11 06:51:25;;;;;;;;;;;;;;;28.37;90.88;99526.50;5024431;28;20539;-39
2022/06/11 06:53:50;;;;;;;;;;;;;;;27.77;92.68;99529.63;5043341;28;19917;-39
2022/06/11 06:56:15;;;;;;;;;;;;;;;27.77;93.00;99534.94;5047189;28;19917;-39
2022/06/11 06:58:40;;;;;;;;;;;;;;;26.87;98.31;99539.75;5049232;28;19946;-40
2022/06/11 07:01:06;;;;;;;;;;;;;;;28.24;94.55;99521.59;5046835;28;19990;-40
2022/06/11 07:03:32;;;;;;;;;;;;;;;28.40;93.03;99528.88;5047178;28;19920;-39
2022/06/11 07:05:57;;;;;;;;;;;;;;;28.46;90.92;99524.78;5046379;28;19920;-40
2022/06/11 07:08:22;;;;;;;;;;;;;;;28.32;91.13;99524.31;5046000;28;19925;-40
2022/06/11 07:10:48;;;;;;;;;;;;;;;28.91;87.37;99523.88;5045424;28;19921;-39
2022/06/11 07:13:14;;;;;;;;;;;;;;;28.02;89.73;99532.59;5045908;28;21115;-40
2022/06/11 07:15:39;;;;;;;;;;;;;;;27.36;91.52;99536.19;5044564;28;19952;-39
2022/06/11 07:18:05;;;;;;;;;;;;;;;28.18;91.91;99526.66;5027413;28;20392;-39
2022/06/11 07:20:31;;;;;;;;;;;;;;;28.13;89.89;99525.28;5027768;28;19921;-39
2022/06/11 07:23:07;;;;;;;;;;;;;;;28.18;90.86;99526.66;5027755;28;19921;-39
2022/06/11 07:25:32;;;;;;;;;;;;;;;26.74;97.76;99539.19;5045603;28;19928;-39
2022/06/11 07:28:02;;;;;;;;;;;;;;;25.62;100.00;99546.38;5027706;28;19920;-39
2022/06/11 07:30:28;;;;;;;;;;;;;;;25.78;100.00;99549.38;5028663;28;19916;-39
2022/06/11 07:33:00;;;;;;;;;;;;;;;25.53;100.00;99552.47;5025165;28;19925;-39
2022/06/11 07:35:26;;;;;;;;;;;;;;;25.74;100.00;99549.78;5027549;28;19917;-39
2022/06/11 07:37:51;;;;;;;;;;;;;;;26.17;100.00;99553.97;5026531;28;19928;-39
2022/06/11 07:40:18;;;;;;;;;;;;;;;25.72;100.00;99555.16;5045749;28;19924;-39
2022/06/11 07:42:43;;;;;;;;;;;;;;;26.57;100.00;99548.66;5045974;28;20027;-39
2022/06/11 07:45:09;;;;;;;;;;;;;;;27.62;98.20;99546.97;5045367;28;20885;-39
2022/06/11 07:50:17;;;;;;;;;;;;;;;27.25;98.53;99553.06;5028172;28;19927;-39
2022/06/11 07:52:43;;;;;;;;;;;;;;;27.70;96.83;99547.06;5047037;28;20226;-39
2022/06/11 07:55:09;;;;;;;;;;;;;;;27.89;97.72;99551.47;5044213;28;19920;-39
2022/06/11 07:57:34;;;;;;;;;;;;;;;26.75;100.00;99558.50;5043720;28;19917;-39
2022/06/11 07:59:59;;;;;;;;;;;;;;;27.06;100.00;99560.03;5044296;28;19926;-39
2022/06/11 08:02:25;;;;;;;;;;;;;;;27.87;100.00;99545.50;5043675;28;19964;-39
2022/06/11 08:04:50;;;;;;;;;;;;;;;26.90;100.00;99559.75;5042022;28;19932;-39
2022/06/11 08:07:16;;;;;;;;;;;;;;;26.72;100.00;99564.09;5045001;28;19916;-39
2022/06/11 08:09:41;;;;;;;;;;;;;;;26.51;100.00;99562.38;5044430;28;19917;-39
2022/06/11 08:12:06;;;;;;;;;;;;;;;27.57;100.00;99554.50;5043980;28;19917;-39
2022/06/11 08:14:32;;;;;;;;;;;;;;;27.64;100.00;99551.13;5041625;28;20381;-39
2022/06/11 08:16:57;;;;;;;;;;;;;;;28.08;97.59;99554.03;5046356;28;20714;-39
2022/06/11 08:19:22;;;;;;;;;;;;;;;27.29;100.00;99559.75;5043865;28;20565;-39
2022/06/11 08:21:47;;;;;;;;;;;;;;;27.53;99.98;99553.97;5041669;28;20028;-39
2022/06/11 08:24:13;;;;;;;;;;;;;;;27.24;100.00;99559.34;5043358;28;20740;-39
2022/06/11 08:26:38;;;;;;;;;;;;;;;26.64;100.00;99554.19;5042934;28;19925;-39
2022/06/11 08:29:03;;;;;;;;;;;;;;;26.29;100.00;99566.91;5041728;28;19971;-39
2022/06/11 08:31:28;;;;;;;;;;;;;;;27.71;99.38;99554.03;5045107;28;19978;-39
2022/06/11 08:33:53;;;;;;;;;;;;;;;28.10;99.57;99556.50;5046334;28;20010;-39
2022/06/11 08:36:19;;;;;;;;;;;;;;;28.20;95.68;99553.84;5042953;28;19920;-39
2022/06/11 08:38:44;;;;;;;;;;;;;;;28.18;95.29;99556.63;5045094;28;19920;-39
2022/06/11 08:41:17;;;;;;;;;;;;;;;28.78;90.34;99551.63;5043797;28;19974;-39
2022/06/11 08:43:44;;;;;;;;;;;;;;;29.59;88.10;99550.53;5043267;28;19921;-39
2022/06/11 08:46:11;;;;;;;;;;;;;;;29.65;85.84;99556.19;5025426;28;19999;-39
2022/06/11 08:48:42;;;;;;;;;;;;;;;29.53;85.86;99552.97;5026512;28;20830;-39
2022/06/11 08:51:19;;;;;;;;;;;;;;;30.32;81.51;99553.69;5041810;28;19921;-39
2022/06/11 08:53:44;;;;;;;;;;;;;;;28.46;91.19;99556.56;5043659;28;19964;-39
2022/06/11 08:56:13;;;;;;;;;;;;;;;28.18;93.56;99556.63;5044153;28;20059;-39
2022/06/11 08:58:41;;;;;;;;;;;;;;;28.60;90.18;99558.72;5042886;28;19920;-39
2022/06/11 09:01:23;;;;;;;;;;;;;;;27.94;93.92;99563.31;5046164;28;19991;-39
2022/06/11 09:04:07;;;;;;;;;;;;;;;28.42;96.00;99565.78;5025411;28;19932;-39
2022/06/11 09:06:53;;;;;;;;;;;;;;;28.37;97.75;99558.31;5043809;28;20341;-39
2022/06/11 09:09:30;;;;;;;;;;;;;;;28.73;96.99;99559.19;5041146;28;19927;-39
2022/06/11 09:12:04;;;;;;;;;;;;;;;30.35;84.05;99546.22;5045072;28;19916;-39
2022/06/11 09:14:48;;;;;;;;;;;;;;;28.80;92.13;99553.28;5025594;28;20262;-39
2022/06/11 09:17:29;;;;;;;;;;;;;;;28.26;90.95;99551.44;5035990;28;19925;-39
2022/06/11 09:19:54;;;;;;;;;;;;;;;28.59;90.13;99550.94;5041197;28;20382;-39
2022/06/11 09:22:27;;;;;;;;;;;;;;;30.95;83.74;99541.63;5044092;28;19923;-39
2022/06/11 09:25:11;;;;;;;;;;;;;;;28.88;89.08;99562.13;5026439;28;19921;-39
2022/06/11 09:27:43;;;;;;;;;;;;;;;30.09;87.01;99550.78;5041086;28;19921;-39
2022/06/11 09:30:12;;;;;;;;;;;;;;;30.84;82.13;99553.41;5025612;28;20290;-39
2022/06/11 09:32:41;;;;;;;;;;;;;;;28.22;87.58;99555.34;5025927;28;19977;-39
2022/06/11 09:35:11;;;;;;;;;;;;;;;28.78;90.02;99551.63;5045654;28;19924;-39
2022/06/11 09:37:40;;;;;;;;;;;;;;;28.10;92.55;99557.38;5025391;28;20039;-39
2022/06/11 09:40:21;;;;;;;;;;;;;;;29.15;88.76;99553.25;5026245;28;19916;-39
2022/06/11 09:42:49;;;;;;;;;;;;;;;30.12;81.85;99553.09;5042546;28;19916;-39
2022/06/11 09:45:24;;;;;;;;;;;;;;;31.05;78.05;99551.09;5044631;28;20063;-39
2022/06/11 09:47:50;;;;;;;;;;;;;;;29.61;86.63;99561.81;5025245;28;19969;-39
2022/06/11 09:50:18;;;;;;;;;;;;;;;30.67;87.63;99554.41;5044105;28;19917;-39
2022/06/11 09:52:43;;;;;;;;;;;;;;;30.35;85.50;99561.31;5045332;28;19924;-39
2022/06/11 09:55:18;;;;;;;;;;;;;;;30.84;85.75;99556.06;5042730;28;19966;-39
2022/06/11 09:57:55;;;;;;;;;;;;;;;32.19;79.86;99551.78;5039821;28;19920;-39
2022/06/11 10:00:24;;;;;;;;;;;;;;;32.30;77.83;99553.22;5024832;28;19925;-39
2022/06/11 10:02:55;;;;;;;;;;;;;;;32.02;77.49;99555.53;5041538;28;19987;-39
2022/06/11 10:05:28;;;;;;;;;;;;;;;31.84;74.55;99551.25;5025633;28;20418;-39
2022/06/11 10:07:55;;;;;;;;;;;;;;;33.07;75.15;99539.00;5027271;28;19925;-39
2022/06/11 10:10:25;;;;;;;;;;;;;;;30.97;84.66;99566.22;5023068;28;19995;-39
2022/06/11 10:13:00;;;;;;;;;;;;;;;31.94;76.44;99558.22;5022626;28;19924;-39
2022/06/11 10:15:33;;;;;;;;;;;;;;;29.58;81.80;99551.53;5024269;28;20019;-39
2022/06/11 10:18:06;;;;;;;;;;;;;;;29.43;87.59;99558.41;5043973;28;19934;-39
2022/06/11 10:20:31;;;;;;;;;;;;;;;29.71;83.61;99552.94;5041279;28;19920;-39
2022/06/11 10:23:00;;;;;;;;;;;;;;;32.73;74.26;99537.63;5042390;28;19927;-39
2022/06/11 10:25:27;;;;;;;;;;;;;;;33.46;64.74;99543.25;5044505;28;19921;-39
2022/06/11 10:27:56;;;;;;;;;;;;;;;30.33;81.18;99556.16;5041804;28;19921;-39
2022/06/11 10:30:34;;;;;;;;;;;;;;;29.21;90.06;99556.28;5041196;28;19928;-39
2022/06/11 10:32:59;;;;;;;;;;;;;;;29.09;90.79;99553.88;5039095;28;19920;-39
2022/06/11 10:35:27;;;;;;;;;;;;;;;28.29;95.58;99564.34;5041619;28;19920;-39
2022/06/11 10:37:57;;;;;;;;;;;;;;;27.82;98.96;99569.72;5041206;28;19927;-39
2022/06/11 10:40:33;;;;;;;;;;;;;;;29.25;93.40;99562.94;5022476;28;19921;-39
2022/06/11 10:42:58;;;;;;;;;;;;;;;28.31;97.75;99569.50;5042573;28;19913;-39
2022/06/11 10:45:28;;;;;;;;;;;;;;;28.69;96.42;99565.78;5040400;28;19935;-39
2022/06/11 10:47:54;;;;;;;;;;;;;;;29.37;94.68;99566.97;5025212;28;20211;-39
2022/06/11 10:50:37;;;;;;;;;;;;;;;30.67;87.64;99555.22;5021380;28;19920;-39
2022/06/11 10:53:18;;;;;;;;;;;;;;;30.96;83.40;99560.09;5042611;28;20031;-39
2022/06/11 10:55:44;;;;;;;;;;;;;;;30.83;85.67;99554.41;5041029;28;19920;-39
2022/06/11 10:58:10;;;;;;;;;;;;;;;30.96;85.95;99560.09;5025471;28;19924;-39
2022/06/11 11:00:38;;;;;;;;;;;;;;;31.16;86.21;99555.25;5039072;28;20555;-40
2022/06/11 11:03:04;;;;;;;;;;;;;;;30.11;85.65;99549.63;5025299;28;20053;-39
2022/06/11 11:05:59;;;;;;;;;;;;;;;30.57;87.11;99555.38;5023872;28;19931;-43
2022/06/11 11:08:24;;;;;;;;;;;;;;;32.18;82.19;99542.09;5024477;28;19966;-43
2022/06/11 11:10:50;;;;;;;;;;;;;;;30.81;76.36;99548.41;5040879;28;19921;-44
2022/06/11 11:13:28;;;;;;;;;;;;;;;33.05;75.73;99541.00;5040545;28;19992;-44
2022/06/11 11:16:00;;;;;;;;;;;;;;;33.37;66.42;99533.69;5040558;28;19955;-44
2022/06/11 11:18:33;;;;;;;;;;;;;;;32.80;68.98;99533.22;5043119;28;20009;-44
2022/06/11 11:20:58;;;;;;;;;;;;;;;31.96;78.30;99527.75;5039576;28;19934;-44
2022/06/11 11:23:34;;;;;;;;;;;;;;;31.34;77.34;99540.91;5043135;28;19925;-43
2022/06/11 11:26:01;;;;;;;;;;;;;;;30.74;82.90;99537.59;5022311;28;19925;-44
2022/06/11 11:28:30;;;;;;;;;;;;;;;30.92;83.01;99537.47;5024401;28;19916;-45
2022/06/11 11:31:03;;;;;;;;;;;;;;;29.24;87.42;99543.53;5022658;28;19921;-43
2022/06/11 11:33:36;;;;;;;;;;;;;;;28.55;90.57;99542.44;5039831;28;20245;-43
2022/06/11 11:36:22;;;;;;;;;;;;;;;29.24;89.76;99546.19;5041788;28;19920;-43
2022/06/11 11:39:06;;;;;;;;;;;;;;;29.52;91.01;99552.16;5040484;28;19924;-43
2022/06/11 11:41:33;;;;;;;;;;;;;;;29.32;88.71;99543.56;5040463;28;20579;-44
2022/06/11 11:43:58;;;;;;;;;;;;;;;29.81;85.86;99543.06;5024127;28;19929;-43
2022/06/11 11:46:24;;;;;;;;;;;;;;;30.04;82.25;99545.94;5042744;28;19931;-44
2022/06/11 11:48:50;;;;;;;;;;;;;;;31.39;77.24;99543.91;5045632;28;19917;-43
2022/06/11 11:51:20;;;;;;;;;;;;;;;31.64;78.82;99532.19;5025224;28;19921;-44
2022/06/11 11:53:47;;;;;;;;;;;;;;;30.94;80.52;99539.97;5026495;28;19920;-44
2022/06/11 11:56:19;;;;;;;;;;;;;;;30.86;83.48;99538.16;5027201;28;19921;-44
2022/06/11 11:58:46;;;;;;;;;;;;;;;30.12;83.96;99539.81;5043827;28;19925;-44
2022/06/11 12:01:13;;;;;;;;;;;;;;;29.13;86.98;99544.63;5023183;28;20816;-43
2022/06/11 12:03:43;;;;;;;;;;;;;;;29.06;89.99;99543.56;5023893;28;19956;-43
2022/06/11 12:06:09;;;;;;;;;;;;;;;30.71;81.51;99539.78;5029107;28;20306;-43
2022/06/11 12:08:35;;;;;;;;;;;;;;;31.22;80.25;99543.09;5026121;28;19920;-44
2022/06/11 12:11:01;;;;;;;;;;;;;;;30.85;82.22;99542.63;5042966;28;19925;-43
2022/06/11 12:13:29;;;;;;;;;;;;;;;29.70;85.03;99540.69;5028178;28;20373;-43
2022/06/11 12:16:01;;;;;;;;;;;;;;;30.53;86.72;99542.59;5044931;28;20027;-43
2022/06/11 12:18:34;;;;;;;;;;;;;;;31.58;76.16;99526.72;5045029;28;19926;-44
2022/06/11 12:21:01;;;;;;;;;;;;;;;30.53;78.54;99531.97;5027962;28;19928;-43
2022/06/11 12:23:39;;;;;;;;;;;;;;;30.94;82.05;99534.66;5027695;28;19927;-44
2022/06/11 12:26:04;;;;;;;;;;;;;;;31.58;81.29;99532.06;5046411;28;19924;-44
2022/06/11 12:28:34;;;;;;;;;;;;;;;30.49;82.47;99531.44;5048453;28;19916;-43
2022/06/11 12:30:59;;;;;;;;;;;;;;;29.93;84.94;99530.31;5028892;28;19956;-43
2022/06/11 12:33:25;;;;;;;;;;;;;;;29.38;87.70;99542.13;5043157;28;20035;-44
2022/06/11 12:35:53;;;;;;;;;;;;;;;30.60;82.75;99528.47;5026500;28;19927;-44
2022/06/11 12:38:35;;;;;;;;;;;;;;;30.91;83.67;99529.69;5030822;28;20686;-43
2022/06/11 12:41:10;;;;;;;;;;;;;;;31.40;78.43;99522.41;5025234;28;19916;-43
2022/06/11 12:43:50;;;;;;;;;;;;;;;32.11;77.27;99524.34;5043570;28;19935;-44
2022/06/11 12:46:17;;;;;;;;;;;;;;;32.19;77.89;99513.66;5044061;28;19971;-44
2022/06/11 12:48:49;;;;;;;;;;;;;;;31.25;77.35;99526.81;5025325;28;20774;-43
2022/06/11 12:51:14;;;;;;;;;;;;;;;30.82;78.56;99536.78;5043783;28;19921;-43
2022/06/11 12:53:56;;;;;;;;;;;;;;;32.76;70.96;99523.09;5044557;28;19928;-43
2022/06/11 12:56:42;;;;;;;;;;;;;;;31.67;75.94;99525.69;5042818;28;19932;-44